createdAt,value
2022-11-28T00:01:43.726Z,6.18
2022-11-28T00:04:12.174Z,6.80
2022-11-28T00:06:43.320Z,6.78
2022-11-28T00:09:14.580Z,5.93
2022-11-28T00:11:42.764Z,5.60
2022-11-28T00:14:11.308Z,5.65
2022-11-28T00:16:39.185Z,6.78
2022-11-28T00:19:07.628Z,7.13
2022-11-28T00:21:37.962Z,6.40
2022-11-28T00:24:08.182Z,6.13
2022-11-28T00:26:37.015Z,6.95
2022-11-28T00:29:05.713Z,6.28
2022-11-28T00:31:34.604Z,5.70
2022-11-28T00:34:03.097Z,5.30
2022-11-28T00:36:31.616Z,6.00
2022-11-28T00:38:59.771Z,5.88
2022-11-28T00:41:30.938Z,5.80
2022-11-28T00:43:58.872Z,5.70
2022-11-28T00:46:26.810Z,5.88
2022-11-28T00:48:55.047Z,4.93
2022-11-28T00:51:24.137Z,5.53
2022-11-28T00:53:52.822Z,4.93
2022-11-28T00:56:21.715Z,5.43
2022-11-28T00:58:51.757Z,5.60
2022-11-28T01:01:20.879Z,4.90
2022-11-28T01:03:49.314Z,4.75
2022-11-28T01:06:22.124Z,5.10
2022-11-28T01:08:49.979Z,5.45
2022-11-28T01:11:18.053Z,5.75
2022-11-28T01:13:46.185Z,4.68
2022-11-28T01:16:17.483Z,5.00
2022-11-28T01:18:45.489Z,4.95
2022-11-28T01:21:13.365Z,5.75
2022-11-28T01:23:41.496Z,5.20
2022-11-28T01:26:11.169Z,5.63
2022-11-28T01:28:39.003Z,5.68
2022-11-28T01:31:07.855Z,5.28
2022-11-28T01:33:41.792Z,6.10
2022-11-28T01:36:11.507Z,5.65
2022-11-28T01:38:40.029Z,5.80
2022-11-28T01:41:08.205Z,5.47
2022-11-28T01:43:41.426Z,5.53
2022-11-28T01:46:12.444Z,4.50
2022-11-28T01:48:43.747Z,5.38
2022-11-28T01:51:12.399Z,5.38
2022-11-28T01:53:43.022Z,5.97
2022-11-28T01:56:13.561Z,6.82
2022-11-28T01:58:43.303Z,5.25
2022-11-28T02:01:12.006Z,6.35
2022-11-28T02:03:45.711Z,5.53
2022-11-28T02:06:15.847Z,6.00
2022-11-28T02:08:46.577Z,6.35
2022-11-28T02:11:25.535Z,5.03
2022-11-28T02:13:56.801Z,6.03
2022-11-28T02:16:33.004Z,6.43
2022-11-28T02:19:09.045Z,5.93
2022-11-28T02:21:51.314Z,5.43
2022-11-28T02:24:33.098Z,6.60
2022-11-28T02:27:16.490Z,4.88
2022-11-28T02:30:05.122Z,5.90
2022-11-28T02:32:54.293Z,4.72
2022-11-28T02:35:24.140Z,4.45
2022-11-28T02:37:58.177Z,6.07
2022-11-28T02:40:27.878Z,5.47
2022-11-28T02:43:02.607Z,6.55
2022-11-28T02:45:32.380Z,6.07
2022-11-28T02:48:04.134Z,5.72
2022-11-28T02:50:35.198Z,6.18
2022-11-28T02:53:07.028Z,6.13
2022-11-28T02:55:38.197Z,5.55
2022-11-28T02:58:06.157Z,5.88
2022-11-28T03:00:35.142Z,5.88
2022-11-28T03:03:23.508Z,6.72
2022-11-28T03:05:54.012Z,6.10
2022-11-28T03:08:33.059Z,6.30
2022-11-28T03:11:04.602Z,5.57
2022-11-28T03:13:36.655Z,5.68
2022-11-28T03:16:10.530Z,5.40
2022-11-28T03:18:41.537Z,6.18
2022-11-28T03:21:17.619Z,6.60
2022-11-28T03:23:49.484Z,5.95
2022-11-28T03:26:24.750Z,6.30
2022-11-28T03:28:55.339Z,6.45
2022-11-28T03:31:25.439Z,5.85
2022-11-28T03:33:59.524Z,5.50
2022-11-28T03:36:28.655Z,5.45
2022-11-28T03:39:00.583Z,5.93
2022-11-28T03:41:30.779Z,6.40
2022-11-28T03:43:59.688Z,5.72
2022-11-28T03:46:32.663Z,5.75
2022-11-28T03:51:33.007Z,5.55
2022-11-28T03:54:02.667Z,6.07
2022-11-28T03:56:33.576Z,6.05
2022-11-28T03:59:03.560Z,5.38
2022-11-28T04:01:34.983Z,6.07
2022-11-28T04:04:14.532Z,5.68
2022-11-28T04:06:52.422Z,5.78
2022-11-28T04:09:22.933Z,6.07
2022-11-28T04:11:54.385Z,6.47
2022-11-28T04:14:25.476Z,5.60
2022-11-28T04:16:55.794Z,5.68
2022-11-28T04:19:26.287Z,5.78
2022-11-28T04:22:05.871Z,5.85
2022-11-28T04:24:37.174Z,5.50
2022-11-28T04:27:06.978Z,5.28
2022-11-28T04:29:40.290Z,6.60
2022-11-28T04:32:11.446Z,5.45
2022-11-28T04:34:44.496Z,5.72
2022-11-28T04:37:18.045Z,5.85
2022-11-28T04:39:48.024Z,6.15
2022-11-28T04:42:18.365Z,5.80
2022-11-28T04:44:48.655Z,6.85
2022-11-28T04:47:17.134Z,5.95
2022-11-28T04:49:45.137Z,6.00
2022-11-28T04:52:17.009Z,5.82
2022-11-28T04:54:49.709Z,6.10
2022-11-28T04:57:22.872Z,6.70
2022-11-28T04:59:51.737Z,5.97
2022-11-28T05:02:23.625Z,5.97
2022-11-28T05:04:53.452Z,6.07
2022-11-28T05:07:24.197Z,6.10
2022-11-28T05:09:52.210Z,6.00
2022-11-28T05:12:24.193Z,4.90
2022-11-28T05:14:54.847Z,6.57
2022-11-28T05:17:23.071Z,5.72
2022-11-28T05:19:53.583Z,5.30
2022-11-28T05:22:25.421Z,6.38
2022-11-28T05:24:53.500Z,5.70
2022-11-28T05:27:21.820Z,6.07
2022-11-28T05:29:52.396Z,6.38
2022-11-28T05:32:20.791Z,6.80
2022-11-28T05:34:48.871Z,5.90
2022-11-28T05:37:16.893Z,5.80
2022-11-28T05:39:46.524Z,6.38
2022-11-28T05:42:14.395Z,5.38
2022-11-28T05:44:42.684Z,5.15
2022-11-28T05:47:10.521Z,5.93
2022-11-28T05:49:38.384Z,5.32
2022-11-28T05:52:06.269Z,5.55
2022-11-28T05:54:34.302Z,5.85
2022-11-28T05:57:06.494Z,5.35
2022-11-28T05:59:34.886Z,5.93
2022-11-28T06:02:02.912Z,5.75
2022-11-28T06:04:31.417Z,5.78
2022-11-28T06:06:59.420Z,5.97
2022-11-28T06:09:27.658Z,6.80
2022-11-28T06:11:55.522Z,5.68
2022-11-28T06:14:24.828Z,6.43
2022-11-28T06:16:52.715Z,6.68
2022-11-28T06:19:20.692Z,7.57
2022-11-28T06:21:50.563Z,8.40
2022-11-28T06:24:18.937Z,9.50
2022-11-28T06:26:46.739Z,11.30
2022-11-28T06:29:14.554Z,12.23
2022-11-28T06:31:44.149Z,12.18
2022-11-28T06:34:12.636Z,9.07
2022-11-28T06:36:41.204Z,7.18
2022-11-28T06:39:09.177Z,6.47
2022-11-28T06:41:37.516Z,6.30
2022-11-28T06:44:08.610Z,7.47
2022-11-28T06:46:36.646Z,5.88
2022-11-28T06:49:06.131Z,6.35
2022-11-28T06:51:34.018Z,6.22
2022-11-28T06:54:02.186Z,5.72
2022-11-28T06:56:32.123Z,5.88
2022-11-28T06:59:00.947Z,5.40
2022-11-28T07:01:32.494Z,5.30
2022-11-28T07:04:00.932Z,5.90
2022-11-28T07:06:32.428Z,5.65
2022-11-28T07:09:00.393Z,6.45
2022-11-28T07:11:29.165Z,5.75
2022-11-28T07:14:17.805Z,6.10
2022-11-28T07:16:52.383Z,5.13
2022-11-28T07:19:23.294Z,5.32
2022-11-28T07:21:52.893Z,5.28
2022-11-28T07:24:23.475Z,6.85
2022-11-28T07:26:54.532Z,15.95
2022-11-28T07:29:25.345Z,12.18
2022-11-28T07:31:53.786Z,8.07
2022-11-28T07:34:23.480Z,6.00
2022-11-28T07:36:56.006Z,5.88
2022-11-28T07:39:26.957Z,5.57
2022-11-28T07:41:58.516Z,5.22
2022-11-28T07:44:27.636Z,4.45
2022-11-28T07:46:59.694Z,5.50
2022-11-28T07:49:31.071Z,5.13
2022-11-28T07:52:01.273Z,5.35
2022-11-28T07:54:29.653Z,5.85
2022-11-28T07:57:12.289Z,5.82
2022-11-28T07:59:41.448Z,5.82
2022-11-28T08:02:10.542Z,6.15
2022-11-28T08:04:42.466Z,7.45
2022-11-28T08:07:16.756Z,8.73
2022-11-28T08:09:46.026Z,7.43
2022-11-28T08:12:14.383Z,9.80
2022-11-28T08:14:42.962Z,12.57
2022-11-28T08:17:11.000Z,24.20
2022-11-28T08:19:39.023Z,22.17
2022-11-28T08:22:08.494Z,12.00
2022-11-28T08:24:38.392Z,8.77
2022-11-28T08:27:08.110Z,7.65
2022-11-28T08:29:37.009Z,6.07
2022-11-28T08:32:06.267Z,7.82
2022-11-28T08:34:34.500Z,5.53
2022-11-28T08:37:02.865Z,5.10
2022-11-28T08:39:31.030Z,6.07
2022-11-28T08:42:00.382Z,7.03
2022-11-28T08:44:31.899Z,5.90
2022-11-28T08:47:00.642Z,6.32
2022-11-28T08:49:28.903Z,5.93
2022-11-28T08:51:57.015Z,6.15
2022-11-28T08:54:26.304Z,6.07
2022-11-28T08:56:54.280Z,6.50
2022-11-28T08:59:24.457Z,7.03
2022-11-28T09:01:54.203Z,7.25
2022-11-28T09:04:23.911Z,7.07
2022-11-28T09:06:52.351Z,8.77
2022-11-28T09:09:23.207Z,10.50
2022-11-28T09:11:51.560Z,8.32
2022-11-28T09:14:20.777Z,9.50
2022-11-28T09:16:50.930Z,8.05
2022-11-28T09:19:20.381Z,9.68
2022-11-28T09:21:51.956Z,11.00
2022-11-28T09:24:24.119Z,9.93
2022-11-28T09:26:53.290Z,9.75
2022-11-28T09:29:23.890Z,8.50
2022-11-28T09:31:54.299Z,8.18
2022-11-28T09:34:22.820Z,8.25
2022-11-28T09:36:51.574Z,7.97
2022-11-28T09:39:23.253Z,7.28
2022-11-28T09:41:55.382Z,7.15
2022-11-28T09:44:25.251Z,6.67
2022-11-28T09:46:56.512Z,6.53
2022-11-28T09:52:24.941Z,7.22
2022-11-28T09:54:58.764Z,7.10
2022-11-28T09:57:37.015Z,6.95
2022-11-28T10:00:07.998Z,6.22
2022-11-28T10:02:40.501Z,5.72
2022-11-28T10:05:19.388Z,6.05
2022-11-28T10:08:00.907Z,5.80
2022-11-28T10:10:33.894Z,6.78
2022-11-28T10:13:04.860Z,5.20
2022-11-28T10:15:39.628Z,6.28
2022-11-28T10:18:13.166Z,7.22
2022-11-28T10:20:43.206Z,7.50
2022-11-28T10:23:15.197Z,8.27
2022-11-28T10:25:45.397Z,7.32
2022-11-28T10:28:15.910Z,6.57
2022-11-28T10:30:47.531Z,6.05
2022-11-28T10:33:25.659Z,7.03
2022-11-28T10:35:55.601Z,6.88
2022-11-28T10:38:26.188Z,6.50
2022-11-28T10:40:58.507Z,7.43
2022-11-28T10:43:30.242Z,6.70
2022-11-28T10:46:04.680Z,7.22
2022-11-28T10:48:40.078Z,8.02
2022-11-28T10:51:17.851Z,7.22
2022-11-28T10:53:49.320Z,6.82
2022-11-28T10:56:22.363Z,6.03
2022-11-28T11:01:18.608Z,6.32
2022-11-28T11:03:49.680Z,6.50
2022-11-28T11:06:17.685Z,7.07
2022-11-28T11:08:46.705Z,7.45
2022-11-28T11:11:19.948Z,7.50
2022-11-28T11:13:58.921Z,9.55
2022-11-28T11:16:27.392Z,7.22
2022-11-28T11:18:57.093Z,7.70
2022-11-28T11:21:25.856Z,8.38
2022-11-28T11:24:26.421Z,7.93
2022-11-28T11:26:54.336Z,7.07
2022-11-28T11:29:23.357Z,7.30
2022-11-28T11:31:55.136Z,7.57
2022-11-28T11:34:29.689Z,7.85
2022-11-28T11:37:17.952Z,7.15
2022-11-28T11:39:49.906Z,8.90
2022-11-28T11:42:22.589Z,7.35
2022-11-28T11:44:52.817Z,7.38
2022-11-28T11:47:21.569Z,7.35
2022-11-28T11:49:51.416Z,7.80
2022-11-28T11:52:21.857Z,6.97
2022-11-28T11:55:00.429Z,6.25
2022-11-28T11:57:34.181Z,6.63
2022-11-28T12:00:04.880Z,7.25
2022-11-28T12:02:37.045Z,6.50
2022-11-28T12:05:10.307Z,6.60
2022-11-28T12:07:40.842Z,7.13
2022-11-28T12:10:12.051Z,6.38
2022-11-28T12:12:42.110Z,7.13
2022-11-28T12:15:15.935Z,7.95
2022-11-28T12:20:47.097Z,7.03
2022-11-28T12:23:32.782Z,6.57
2022-11-28T12:26:02.571Z,7.68
2022-11-28T12:28:35.146Z,8.93
2022-11-28T12:31:06.575Z,10.25
2022-11-28T12:33:42.052Z,10.27
2022-11-28T12:36:16.372Z,12.75
2022-11-28T12:38:56.413Z,9.77
2022-11-28T12:41:33.843Z,8.60
2022-11-28T12:44:05.275Z,7.38
2022-11-28T12:46:37.951Z,7.75
2022-11-28T12:49:14.489Z,6.72
2022-11-28T12:51:48.496Z,6.65
2022-11-28T12:54:39.963Z,8.65
2022-11-28T12:57:12.111Z,7.00
2022-11-28T12:59:46.251Z,6.50
2022-11-28T13:02:21.664Z,6.25
2022-11-28T13:05:13.366Z,6.80
2022-11-28T13:07:53.810Z,6.00
2022-11-28T13:10:26.103Z,6.78
2022-11-28T13:12:58.161Z,5.90
2022-11-28T13:15:35.889Z,6.50
2022-11-28T13:18:12.974Z,5.63
2022-11-28T13:20:44.062Z,7.03
2022-11-28T13:23:17.072Z,6.88
2022-11-28T13:28:17.746Z,6.43
2022-11-28T13:30:49.317Z,5.28
2022-11-28T13:33:29.083Z,6.32
2022-11-28T13:35:58.916Z,6.03
2022-11-28T13:38:36.907Z,5.70
2022-11-28T13:41:28.425Z,5.45
2022-11-28T13:44:04.772Z,6.00
2022-11-28T13:46:34.330Z,6.32
2022-11-28T13:49:20.398Z,5.43
2022-11-28T13:51:49.216Z,5.63
2022-11-28T13:54:48.679Z,5.78
2022-11-28T13:57:37.978Z,5.32
2022-11-28T14:00:20.560Z,7.93
2022-11-28T14:02:50.131Z,7.70
2022-11-28T14:05:26.613Z,7.15
2022-11-28T14:07:55.884Z,7.65
2022-11-28T14:10:35.077Z,7.88
2022-11-28T14:13:14.066Z,7.05
2022-11-28T14:15:52.037Z,6.55
2022-11-28T14:18:55.171Z,8.45
2022-11-28T14:21:24.134Z,7.53
2022-11-28T14:23:54.932Z,9.52
2022-11-28T14:26:25.190Z,10.18
2022-11-28T14:28:53.231Z,9.43
2022-11-28T14:31:26.386Z,10.60
2022-11-28T14:33:58.185Z,10.93
2022-11-28T14:36:28.553Z,10.85
2022-11-28T14:39:09.240Z,10.35
2022-11-28T14:41:51.956Z,11.18
2022-11-28T14:44:38.512Z,11.52
2022-11-28T14:47:14.115Z,10.98
2022-11-28T14:49:42.278Z,10.75
2022-11-28T14:52:40.036Z,9.35
2022-11-28T14:55:16.925Z,8.30
2022-11-28T14:57:52.996Z,8.85
2022-11-28T15:00:24.172Z,7.18
2022-11-28T15:02:58.321Z,7.60
2022-11-28T15:05:31.495Z,8.98
2022-11-28T15:10:31.417Z,7.03
2022-11-28T15:13:03.346Z,9.40
2022-11-28T15:15:32.731Z,9.43
2022-11-28T15:18:02.979Z,10.65
2022-11-28T15:20:32.951Z,9.55
2022-11-28T15:23:00.763Z,8.10
2022-11-28T15:25:29.218Z,8.48
2022-11-28T15:27:57.042Z,8.07
2022-11-28T15:30:26.652Z,9.77
2022-11-28T15:32:56.851Z,7.75
2022-11-28T15:35:26.497Z,9.40
2022-11-28T15:37:55.191Z,10.18
2022-11-28T15:40:29.623Z,11.13
2022-11-28T15:42:57.855Z,11.77
2022-11-28T15:45:27.107Z,10.98
2022-11-28T15:47:56.042Z,9.02
2022-11-28T15:50:25.208Z,10.60
2022-11-28T15:52:59.152Z,9.63
2022-11-28T15:55:28.764Z,8.75
2022-11-28T15:58:10.802Z,10.18
2022-11-28T16:00:41.078Z,10.25
2022-11-28T16:03:14.339Z,10.27
2022-11-28T16:05:43.453Z,8.75
2022-11-28T16:08:19.402Z,7.95
2022-11-28T16:10:47.386Z,8.50
2022-11-28T16:13:17.081Z,8.38
2022-11-28T16:15:49.933Z,8.15
2022-11-28T16:18:18.467Z,6.82
2022-11-28T16:20:47.398Z,7.35
2022-11-28T16:23:20.111Z,6.93
2022-11-28T16:25:58.911Z,8.45
2022-11-28T16:28:31.880Z,7.88
2022-11-28T16:33:38.084Z,7.65
2022-11-28T16:36:13.198Z,8.10
2022-11-28T16:38:43.074Z,8.88
2022-11-28T16:41:15.302Z,9.80
2022-11-28T16:43:43.562Z,10.90
2022-11-28T16:46:21.414Z,10.73
2022-11-28T16:48:50.588Z,10.30
2022-11-28T16:51:36.407Z,10.85
2022-11-28T16:54:23.679Z,9.57
2022-11-28T16:56:57.534Z,10.65
2022-11-28T16:59:26.006Z,10.50
2022-11-28T17:01:54.800Z,9.75
2022-11-28T17:04:23.235Z,10.77
2022-11-28T17:06:51.643Z,9.23
2022-11-28T17:09:19.893Z,8.75
2022-11-28T17:11:48.735Z,9.25
2022-11-28T17:14:17.982Z,9.57
2022-11-28T17:16:48.819Z,9.18
2022-11-28T17:19:17.745Z,9.60
2022-11-28T17:21:46.495Z,11.85
2022-11-28T17:24:16.226Z,12.50
2022-11-28T17:26:46.426Z,10.50
2022-11-28T17:29:15.825Z,10.75
2022-11-28T17:31:46.825Z,9.75
2022-11-28T17:34:19.212Z,9.65
2022-11-28T17:36:47.683Z,9.05
2022-11-28T17:39:16.176Z,9.73
2022-11-28T17:41:44.912Z,9.20
2022-11-28T17:44:15.520Z,9.52
2022-11-28T17:46:43.401Z,9.38
2022-11-28T17:49:12.946Z,9.45
2022-11-28T17:51:41.284Z,9.65
2022-11-28T17:54:09.695Z,9.52
2022-11-28T17:56:37.505Z,13.80
2022-11-28T17:59:05.397Z,11.18
2022-11-28T18:01:33.491Z,12.55
2022-11-28T18:04:01.324Z,15.38
2022-11-28T18:06:30.480Z,11.73
2022-11-28T18:08:59.840Z,10.82
2022-11-28T18:11:28.496Z,11.48
2022-11-28T18:13:57.089Z,12.43
2022-11-28T18:16:25.609Z,13.20
2022-11-28T18:18:53.562Z,16.50
2022-11-28T18:21:21.565Z,18.42
2022-11-28T18:23:50.938Z,18.30
2022-11-28T18:26:20.130Z,20.65
2022-11-28T18:28:48.044Z,19.48
2022-11-28T18:31:17.744Z,20.67
2022-11-28T18:33:46.657Z,23.45
2022-11-28T18:36:15.911Z,23.77
2022-11-28T18:38:45.091Z,22.52
2022-11-28T18:41:15.558Z,21.65
2022-11-28T18:43:43.983Z,17.63
2022-11-28T18:46:13.170Z,18.58
2022-11-28T18:48:42.622Z,17.30
2022-11-28T18:51:11.363Z,17.77
2022-11-28T18:53:39.643Z,17.63
2022-11-28T18:56:08.464Z,17.20
2022-11-28T18:58:38.377Z,19.20
2022-11-28T19:01:09.848Z,16.17
2022-11-28T19:03:37.943Z,16.80
2022-11-28T19:06:06.509Z,17.38
2022-11-28T19:08:34.505Z,16.17
2022-11-28T19:11:03.303Z,15.73
2022-11-28T19:13:31.181Z,14.35
2022-11-28T19:16:00.490Z,14.48
2022-11-28T19:18:28.345Z,16.65
2022-11-28T19:20:56.195Z,17.00
2022-11-28T19:23:24.125Z,23.77
2022-11-28T19:25:52.141Z,30.85
2022-11-28T19:28:20.059Z,34.38
2022-11-28T19:30:48.250Z,33.95
2022-11-28T19:33:17.756Z,33.50
2022-11-28T19:35:45.937Z,30.95
2022-11-28T19:38:13.809Z,29.42
2022-11-28T19:40:41.705Z,28.33
2022-11-28T19:43:09.950Z,25.73
2022-11-28T19:45:38.294Z,20.27
2022-11-28T19:48:06.703Z,19.95
2022-11-28T19:50:36.068Z,32.88
2022-11-28T19:53:04.058Z,44.63
2022-11-28T19:55:32.136Z,36.40
2022-11-28T19:57:59.987Z,29.95
2022-11-28T20:00:28.014Z,22.17
2022-11-28T20:02:58.053Z,20.20
2022-11-28T20:05:26.281Z,19.77
2022-11-28T20:07:58.634Z,21.50
2022-11-28T20:10:31.005Z,21.45
2022-11-28T20:13:00.362Z,21.20
2022-11-28T20:15:32.031Z,22.17
2022-11-28T20:18:02.996Z,18.00
2022-11-28T20:20:31.132Z,24.67
2022-11-28T20:23:01.398Z,25.55
2022-11-28T20:25:33.298Z,23.05
2022-11-28T20:28:01.421Z,22.15
2022-11-28T20:30:29.344Z,27.33
2022-11-28T20:32:57.344Z,26.77
2022-11-28T20:35:25.693Z,25.50
2022-11-28T20:37:53.815Z,22.83
2022-11-28T20:40:23.243Z,22.00
2022-11-28T20:42:51.124Z,20.70
2022-11-28T20:45:19.208Z,20.75
2022-11-28T20:47:50.016Z,20.40
2022-11-28T20:50:18.402Z,19.67
2022-11-28T20:52:46.530Z,20.33
2022-11-28T20:55:14.498Z,20.20
2022-11-28T20:57:43.888Z,20.63
2022-11-28T21:00:12.562Z,20.60
2022-11-28T21:02:40.737Z,20.20
2022-11-28T21:05:09.127Z,18.00
2022-11-28T21:07:37.082Z,17.92
2022-11-28T21:10:05.738Z,18.35
2022-11-28T21:12:33.867Z,17.10
2022-11-28T21:15:04.719Z,19.50
2022-11-28T21:17:32.889Z,17.88
2022-11-28T21:20:00.788Z,17.65
2022-11-28T21:22:29.135Z,18.58
2022-11-28T21:24:57.558Z,17.77
2022-11-28T21:27:28.495Z,15.40
2022-11-28T21:29:59.201Z,12.60
2022-11-28T21:32:29.293Z,13.48
2022-11-28T21:35:03.923Z,11.82
2022-11-28T21:37:32.983Z,10.40
2022-11-28T21:40:01.325Z,11.45
2022-11-28T21:42:30.381Z,11.55
2022-11-28T21:45:00.821Z,10.85
2022-11-28T21:47:33.107Z,12.18
2022-11-28T21:50:05.518Z,12.02
2022-11-28T21:52:33.363Z,10.85
2022-11-28T21:55:01.216Z,11.43
2022-11-28T21:57:29.223Z,11.25
2022-11-28T21:59:57.050Z,14.02
2022-11-28T22:02:30.457Z,12.88
2022-11-28T22:05:00.051Z,12.75
2022-11-28T22:07:28.310Z,13.88
2022-11-28T22:09:56.141Z,12.85
2022-11-28T22:12:24.557Z,12.50
2022-11-28T22:14:54.404Z,14.20
2022-11-28T22:17:23.955Z,11.90
2022-11-28T22:19:53.773Z,13.32
2022-11-28T22:22:27.585Z,12.90
2022-11-28T22:24:56.071Z,11.95
2022-11-28T22:27:24.462Z,12.43
2022-11-28T22:29:52.697Z,11.32
2022-11-28T22:32:23.567Z,11.95
2022-11-28T22:34:52.181Z,12.65
2022-11-28T22:37:22.333Z,12.27
2022-11-28T22:39:52.787Z,13.98
2022-11-28T22:42:21.133Z,12.00
2022-11-28T22:44:51.728Z,11.73
2022-11-28T22:47:19.978Z,10.55
2022-11-28T22:49:48.367Z,10.73
2022-11-28T22:52:20.016Z,11.55
2022-11-28T22:54:50.334Z,10.75
2022-11-28T22:57:19.747Z,11.50
2022-11-28T22:59:47.812Z,10.68
2022-11-28T23:02:18.270Z,10.70
2022-11-28T23:04:49.851Z,10.93
2022-11-28T23:07:17.850Z,11.18
2022-11-28T23:09:46.135Z,11.05
2022-11-28T23:12:14.649Z,10.93
2022-11-28T23:14:47.025Z,12.40
2022-11-28T23:17:15.475Z,13.65
2022-11-28T23:19:43.448Z,13.75
2022-11-28T23:22:11.291Z,13.40
2022-11-28T23:24:39.375Z,11.65
2022-11-28T23:27:07.257Z,11.05
2022-11-28T23:29:35.251Z,12.95
2022-11-28T23:32:04.799Z,13.43
2022-11-28T23:34:33.445Z,12.07
2022-11-28T23:37:01.420Z,10.18
2022-11-28T23:39:32.172Z,11.10
2022-11-28T23:42:00.576Z,11.00
2022-11-28T23:44:28.829Z,9.85
2022-11-28T23:46:59.199Z,10.52
2022-11-28T23:49:31.525Z,10.68
2022-11-28T23:51:59.676Z,11.55
2022-11-28T23:54:28.036Z,11.02
2022-11-28T23:56:56.166Z,10.63
2022-11-28T23:59:24.595Z,11.25
